Time;durP1;ratioP1;P1;durP2;ratioP2;P2;SDS_P1;SDS_P2;PMS_P1;PMS_P2;Temp;Humidity;BMP_temperature;BMP_pressure;BME280_temperature;BME280_humidity;BME280_pressure;Samples;Min_cycle;Max_cycle;Signal;HPM_P1;HPM_P2
2021/12/23 00:01:35;;;;;;;3.95;3.65;;;16.50;52.90;;;;;;5052693;28;20267;-59
2021/12/23 00:04:00;;;;;;;4.38;3.92;;;16.50;52.90;;;;;;5052198;28;20633;-59
2021/12/23 00:06:26;;;;;;;4.30;3.90;;;16.40;52.80;;;;;;5052126;28;20539;-59
2021/12/23 00:08:51;;;;;;;3.83;3.53;;;16.40;52.90;;;;;;5052546;28;20206;-60
2021/12/23 00:11:17;;;;;;;4.78;4.18;;;16.40;52.90;;;;;;5052219;28;20543;-60
2021/12/23 00:13:58;;;;;;;4.18;3.78;;;16.30;52.80;;;;;;5052467;28;20171;-60
2021/12/23 00:16:40;;;;;;;3.95;3.65;;;16.30;52.90;;;;;;5052389;28;20591;-59
2021/12/23 00:19:16;;;;;;;4.28;3.88;;;16.30;52.90;;;;;;5051896;28;20254;-59
2021/12/23 00:24:26;;;;;;;4.03;3.65;;;16.30;53.00;;;;;;5052211;28;20174;-59
2021/12/23 00:26:51;;;;;;;4.32;3.92;;;16.30;53.00;;;;;;5051840;28;20262;-59
2021/12/23 00:29:17;;;;;;;4.55;4.15;;;16.30;53.00;;;;;;5052453;28;20178;-59
2021/12/23 00:31:42;;;;;;;4.05;3.63;;;16.20;53.00;;;;;;5052077;28;20190;-59
2021/12/23 00:34:10;;;;;;;4.10;3.72;;;16.20;52.90;;;;;;5051565;28;20637;-58
2021/12/23 00:36:36;;;;;;;4.30;3.90;;;16.20;52.90;;;;;;5052184;28;20269;-60
2021/12/23 00:39:02;;;;;;;4.38;3.83;;;16.20;52.90;;;;;;5051873;28;20206;-59
2021/12/23 00:41:31;;;;;;;4.50;4.10;;;16.20;53.00;;;;;;5052060;28;20232;-60
2021/12/23 00:43:57;;;;;;;4.28;3.88;;;16.20;52.90;;;;;;5052280;28;20171;-59
2021/12/23 00:46:23;;;;;;;4.60;4.20;;;16.10;52.90;;;;;;5051179;28;20171;-60
2021/12/23 00:48:48;;;;;;;4.05;3.65;;;16.10;52.80;;;;;;5052121;28;20226;-59
2021/12/23 00:51:14;;;;;;;4.40;3.78;;;16.10;53.00;;;;;;5052597;28;20175;-60
2021/12/23 00:53:40;;;;;;;3.95;3.65;;;16.10;52.90;;;;;;5051473;28;20225;-60
2021/12/23 00:56:07;;;;;;;4.30;3.90;;;16.10;52.90;;;;;;5052460;28;20242;-60
2021/12/23 00:58:32;;;;;;;4.05;3.67;;;16.10;53.00;;;;;;5051991;28;20191;-60
2021/12/23 01:01:01;;;;;;;3.90;3.60;;;16.00;52.80;;;;;;5051544;28;20514;-60
2021/12/23 01:03:27;;;;;;;4.10;3.63;;;16.00;52.90;;;;;;5052001;28;20167;-59
2021/12/23 01:05:52;;;;;;;4.20;3.90;;;16.00;52.90;;;;;;5052069;28;20201;-59
2021/12/23 01:08:19;;;;;;;3.38;3.10;;;16.00;53.00;;;;;;5051318;28;20289;-60
2021/12/23 01:10:50;;;;;;;4.25;3.95;;;16.00;53.00;;;;;;5051944;28;20178;-60
2021/12/23 01:13:18;;;;;;;4.53;4.00;;;16.00;52.90;;;;;;5051602;28;20178;-60
2021/12/23 01:15:59;;;;;;;3.92;3.63;;;16.00;52.90;;;;;;5050989;28;20223;-59
2021/12/23 01:18:25;;;;;;;4.13;3.70;;;15.90;53.00;;;;;;5051292;28;20183;-60
2021/12/23 01:21:03;;;;;;;4.20;3.83;;;15.90;53.00;;;;;;5051705;28;20186;-59
2021/12/23 01:23:28;;;;;;;3.80;3.42;;;15.90;53.00;;;;;;5051350;28;20182;-60
2021/12/23 01:25:54;;;;;;;4.47;4.07;;;15.90;53.00;;;;;;5051730;28;20205;-59
2021/12/23 01:28:20;;;;;;;3.65;3.35;;;15.90;53.00;;;;;;5050876;28;20217;-59
2021/12/23 01:30:45;;;;;;;4.18;3.80;;;15.90;53.00;;;;;;5051831;28;20183;-58
2021/12/23 01:33:11;;;;;;;3.90;3.58;;;15.90;53.00;;;;;;5051899;28;20537;-58
2021/12/23 01:35:37;;;;;;;4.00;3.70;;;15.90;53.00;;;;;;5050552;28;20569;-59
2021/12/23 01:38:02;;;;;;;4.22;3.83;;;15.80;52.90;;;;;;5051751;28;20548;-60
2021/12/23 01:40:28;;;;;;;4.13;3.83;;;15.80;52.90;;;;;;5051511;28;20551;-59
2021/12/23 01:42:54;;;;;;;4.10;3.70;;;15.80;52.90;;;;;;5051122;28;20254;-60
2021/12/23 01:45:23;;;;;;;3.72;3.40;;;15.80;52.90;;;;;;5051648;28;20178;-59
2021/12/23 01:47:48;;;;;;;4.05;3.75;;;15.80;53.00;;;;;;5051741;28;20628;-60
2021/12/23 01:50:15;;;;;;;4.10;3.80;;;15.80;53.00;;;;;;5050884;28;20312;-61
2021/12/23 01:52:41;;;;;;;3.95;3.65;;;15.80;52.90;;;;;;5051467;28;20210;-60
2021/12/23 01:55:07;;;;;;;4.30;3.83;;;15.80;53.70;;;;;;5051267;28;20296;-60
2021/12/23 01:57:33;;;;;;;3.85;3.55;;;15.70;53.10;;;;;;5050711;28;20172;-59
2021/12/23 01:59:59;;;;;;;4.25;3.92;;;15.70;53.00;;;;;;5051703;28;20755;-59
2021/12/23 02:02:25;;;;;;;4.13;3.78;;;15.70;53.00;;;;;;5053974;28;20179;-60
2021/12/23 02:04:51;;;;;;;3.95;3.65;;;15.70;52.90;;;;;;5054710;28;20216;-59
2021/12/23 02:07:17;;;;;;;4.15;3.75;;;15.70;52.90;;;;;;5054950;28;20171;-59
2021/12/23 02:09:43;;;;;;;4.15;3.78;;;15.70;52.90;;;;;;5054519;28;20194;-60
2021/12/23 02:12:09;;;;;;;3.70;3.40;;;15.70;52.90;;;;;;5054217;28;20194;-60
2021/12/23 02:14:34;;;;;;;4.22;3.83;;;15.70;53.00;;;;;;5054509;28;20247;-60
2021/12/23 02:17:00;;;;;;;4.53;4.10;;;15.70;52.90;;;;;;5053657;28;20183;-60
2021/12/23 02:19:25;;;;;;;3.58;3.33;;;15.60;52.90;;;;;;5053837;28;20175;-59
2021/12/23 02:21:54;;;;;;;4.28;3.97;;;15.60;52.90;;;;;;5053349;28;20646;-60
2021/12/23 02:24:19;;;;;;;4.32;4.00;;;15.60;52.80;;;;;;5054099;28;20244;-59
2021/12/23 02:26:45;;;;;;;4.20;3.80;;;15.60;52.80;;;;;;5054742;28;20221;-59
2021/12/23 02:29:10;;;;;;;4.45;4.05;;;15.60;52.80;;;;;;5054757;28;20388;-59
2021/12/23 02:31:36;;;;;;;4.47;4.13;;;15.60;52.80;;;;;;5053649;28;20240;-60
2021/12/23 02:34:02;;;;;;;4.10;3.80;;;15.60;52.80;;;;;;5054381;28;20175;-60
2021/12/23 02:36:30;;;;;;;4.13;3.65;;;15.50;52.80;;;;;;5054143;28;20249;-60
2021/12/23 02:38:56;;;;;;;4.18;3.80;;;15.50;52.80;;;;;;5053980;28;20233;-60
2021/12/23 02:41:21;;;;;;;3.60;3.30;;;15.50;52.80;;;;;;5054262;28;20174;-59
2021/12/23 02:43:47;;;;;;;4.05;3.75;;;15.50;52.80;;;;;;5054835;28;20174;-60
2021/12/23 02:46:13;;;;;;;4.15;3.78;;;15.50;52.80;;;;;;5053666;28;20171;-59
2021/12/23 02:48:39;;;;;;;4.05;3.67;;;15.50;52.80;;;;;;5053849;28;20289;-60
2021/12/23 02:51:07;;;;;;;3.78;3.40;;;15.50;52.80;;;;;;5054135;28;20626;-60
2021/12/23 02:53:32;;;;;;;3.95;3.63;;;15.50;52.80;;;;;;5053207;28;20179;-59
2021/12/23 02:55:59;;;;;;;4.32;3.92;;;15.50;52.80;;;;;;5053775;28;20620;-60
2021/12/23 02:58:25;;;;;;;4.32;3.92;;;15.50;52.80;;;;;;5054064;28;20243;-59
2021/12/23 03:00:51;;;;;;;4.03;3.72;;;15.40;52.80;;;;;;5053514;28;20702;-60
2021/12/23 03:03:17;;;;;;;4.30;3.90;;;15.40;52.80;;;;;;5053817;28;20550;-60
2021/12/23 03:05:49;;;;;;;4.07;3.70;;;15.40;52.70;;;;;;5053664;28;20210;-60
2021/12/23 03:08:15;;;;;;;3.92;3.63;;;15.40;52.60;;;;;;5053344;28;20187;-60
2021/12/23 03:10:41;;;;;;;4.30;3.90;;;15.40;52.70;;;;;;5053920;28;20171;-60
2021/12/23 03:13:06;;;;;;;3.92;3.63;;;15.40;52.70;;;;;;5052747;28;20175;-61
2021/12/23 03:15:32;;;;;;;4.00;3.60;;;15.40;52.70;;;;;;5052738;28;20626;-60
2021/12/23 03:17:57;;;;;;;3.88;3.58;;;15.30;52.70;;;;;;5053812;28;20187;-59
2021/12/23 03:20:23;;;;;;;4.13;3.80;;;15.30;52.60;;;;;;5053249;28;20190;-59
2021/12/23 03:22:48;;;;;;;3.70;3.40;;;15.30;52.60;;;;;;5052828;28;20694;-60
2021/12/23 03:25:14;;;;;;;4.45;4.07;;;15.30;52.60;;;;;;5053400;28;20216;-60
2021/12/23 03:27:39;;;;;;;3.78;3.42;;;15.30;52.70;;;;;;5052435;28;20175;-60
2021/12/23 03:30:05;;;;;;;3.67;3.38;;;15.30;52.70;;;;;;5053528;28;20224;-59
2021/12/23 03:32:31;;;;;;;4.47;4.07;;;15.30;52.60;;;;;;5053062;28;20213;-59
2021/12/23 03:34:59;;;;;;;4.57;4.10;;;15.30;52.70;;;;;;5052552;28;20333;-58
2021/12/23 03:37:25;;;;;;;3.63;3.33;;;15.30;52.60;;;;;;5052912;28;20618;-60
2021/12/23 03:39:53;;;;;;;4.57;4.20;;;15.30;52.60;;;;;;5053330;28;20194;-59
2021/12/23 03:42:18;;;;;;;4.57;4.18;;;15.20;52.60;;;;;;5052595;28;20167;-59
2021/12/23 03:44:44;;;;;;;4.88;4.38;;;15.20;52.60;;;;;;5053139;28;20270;-60
2021/12/23 03:47:12;;;;;;;3.95;3.65;;;15.20;52.50;;;;;;5053025;28;20298;-62
2021/12/23 03:49:38;;;;;;;4.15;3.80;;;15.30;52.50;;;;;;5052005;28;20237;-61
2021/12/23 03:52:06;;;;;;;3.97;3.65;;;15.20;52.50;;;;;;5053057;28;20207;-59
2021/12/23 03:54:32;;;;;;;4.47;4.07;;;15.20;52.50;;;;;;5052194;28;20211;-60
2021/12/23 03:56:57;;;;;;;4.13;3.80;;;15.20;52.40;;;;;;5052011;28;20630;-60
2021/12/23 03:59:23;;;;;;;4.65;4.25;;;15.10;52.40;;;;;;5052626;28;20202;-59
2021/12/23 04:01:48;;;;;;;4.70;4.30;;;15.20;52.60;;;;;;5052787;28;20175;-59
2021/12/23 04:04:14;;;;;;;4.20;3.80;;;15.10;52.30;;;;;;5052119;28;20175;-60
2021/12/23 04:06:42;;;;;;;4.30;4.00;;;15.10;52.40;;;;;;5052327;28;20190;-61
2021/12/23 04:09:08;;;;;;;4.55;4.20;;;15.10;52.30;;;;;;5052943;28;20179;-60
2021/12/23 04:11:33;;;;;;;4.38;3.90;;;15.10;52.30;;;;;;5051495;28;20641;-60
2021/12/23 04:13:59;;;;;;;4.32;3.92;;;15.10;52.40;;;;;;5052648;28;20270;-60
2021/12/23 04:16:24;;;;;;;4.82;4.43;;;15.10;52.40;;;;;;5052418;28;20237;-60
2021/12/23 04:18:51;;;;;;;4.20;3.83;;;15.00;52.30;;;;;;5051734;28;20206;-59
2021/12/23 04:21:17;;;;;;;4.43;4.13;;;15.10;52.30;;;;;;5052765;28;20186;-59
2021/12/23 04:23:43;;;;;;;4.10;3.70;;;15.00;52.20;;;;;;5051875;28;20744;-59
2021/12/23 04:26:09;;;;;;;3.80;3.50;;;15.00;52.30;;;;;;5051800;28;20269;-59
2021/12/23 04:28:44;;;;;;;4.18;3.88;;;15.00;52.30;;;;;;5052153;28;20225;-59
2021/12/23 04:31:10;;;;;;;4.90;4.50;;;15.00;52.30;;;;;;5051732;28;20167;-58
2021/12/23 04:33:35;;;;;;;4.03;3.70;;;15.00;52.30;;;;;;5052148;28;20186;-59
2021/12/23 04:36:01;;;;;;;4.05;3.72;;;15.00;52.30;;;;;;5052339;28;20211;-59
2021/12/23 04:38:26;;;;;;;4.28;3.88;;;15.00;52.30;;;;;;5051344;28;20175;-60
2021/12/23 04:40:52;;;;;;;4.85;4.40;;;15.00;52.30;;;;;;5052212;28;20214;-59
2021/12/23 04:43:17;;;;;;;4.53;4.13;;;14.90;52.30;;;;;;5052173;28;20217;-59
2021/12/23 04:45:43;;;;;;;4.00;3.70;;;14.90;52.30;;;;;;5051101;28;20582;-58
2021/12/23 04:48:08;;;;;;;4.53;4.13;;;15.00;52.30;;;;;;5051936;28;20227;-59
2021/12/23 04:50:34;;;;;;;4.30;3.88;;;14.90;52.30;;;;;;5051871;28;20175;-59
2021/12/23 04:52:59;;;;;;;4.80;4.30;;;14.90;52.40;;;;;;5051390;28;20167;-61
2021/12/23 04:55:25;;;;;;;4.30;4.00;;;14.90;52.30;;;;;;5051682;28;20199;-60
2021/12/23 04:57:50;;;;;;;4.50;4.10;;;14.90;52.30;;;;;;5052086;28;20657;-59
2021/12/23 05:00:18;;;;;;;4.55;4.20;;;14.90;52.30;;;;;;5051062;28;20175;-59
2021/12/23 05:02:44;;;;;;;3.80;3.50;;;14.90;52.30;;;;;;5051995;28;20203;-59
2021/12/23 05:05:10;;;;;;;4.65;4.25;;;14.90;52.30;;;;;;5051996;28;20572;-59
2021/12/23 05:07:36;;;;;;;4.38;3.97;;;14.90;52.30;;;;;;5050701;28;20613;-58
2021/12/23 05:10:01;;;;;;;4.63;4.22;;;14.80;52.30;;;;;;5051689;28;20183;-59
2021/12/23 05:12:27;;;;;;;4.32;4.03;;;14.80;52.20;;;;;;5051234;28;20626;-60
2021/12/23 05:14:52;;;;;;;4.72;4.40;;;14.80;52.30;;;;;;5050866;28;20203;-60
2021/12/23 05:17:18;;;;;;;4.35;3.95;;;14.80;52.20;;;;;;5051499;28;20533;-60
2021/12/23 05:19:43;;;;;;;4.80;4.30;;;14.80;52.20;;;;;;5051735;28;20646;-60
2021/12/23 05:22:09;;;;;;;4.30;3.90;;;14.80;52.20;;;;;;5050968;28;20224;-60
2021/12/23 05:24:34;;;;;;;4.75;4.25;;;14.80;52.30;;;;;;5051141;28;20221;-60
2021/12/23 05:27:00;;;;;;;4.40;4.10;;;14.80;52.20;;;;;;5051440;28;20179;-59
2021/12/23 05:29:25;;;;;;;3.97;3.67;;;14.80;52.20;;;;;;5050381;28;20539;-59
2021/12/23 05:31:51;;;;;;;4.13;3.80;;;14.80;52.20;;;;;;5051468;28;20175;-59
2021/12/23 05:34:16;;;;;;;4.43;4.03;;;14.80;52.30;;;;;;5050837;28;20575;-59
2021/12/23 05:36:42;;;;;;;5.03;4.57;;;14.70;52.20;;;;;;5052666;28;20584;-59
2021/12/23 05:39:08;;;;;;;4.57;4.10;;;14.70;52.30;;;;;;5055746;28;20217;-59
2021/12/23 05:41:33;;;;;;;4.15;3.85;;;14.70;52.20;;;;;;5054594;28;20167;-59
2021/12/23 05:43:59;;;;;;;4.53;4.22;;;14.70;52.20;;;;;;5055407;28;20225;-59
2021/12/23 05:46:24;;;;;;;5.18;4.68;;;14.70;52.20;;;;;;5054873;28;20701;-60
2021/12/23 05:48:50;;;;;;;4.32;3.92;;;14.70;52.20;;;;;;5053336;28;20291;-59
2021/12/23 05:51:15;;;;;;;4.40;4.00;;;14.70;52.30;;;;;;5055470;28;20190;-59
2021/12/23 05:53:41;;;;;;;4.47;4.07;;;14.70;52.30;;;;;;5054999;28;20528;-59
2021/12/23 05:56:06;;;;;;;4.07;3.67;;;14.70;52.30;;;;;;5054628;28;20696;-60
2021/12/23 05:58:32;;;;;;;4.68;4.30;;;14.70;52.30;;;;;;5054951;28;20179;-59
2021/12/23 06:00:58;;;;;;;4.25;3.90;;;14.70;52.40;;;;;;5055167;28;20265;-59
2021/12/23 06:03:26;;;;;;;4.03;3.72;;;14.70;52.40;;;;;;5053977;28;20696;-59
2021/12/23 06:05:52;;;;;;;4.53;4.13;;;14.70;52.30;;;;;;5055205;28;20179;-59
2021/12/23 06:08:17;;;;;;;4.10;3.80;;;14.80;52.40;;;;;;5055404;28;20660;-59
2021/12/23 06:10:42;;;;;;;4.03;3.72;;;14.80;52.40;;;;;;5054267;28;20549;-59
2021/12/23 06:13:08;;;;;;;3.85;3.50;;;14.90;52.50;;;;;;5054942;28;20603;-60
2021/12/23 06:15:34;;;;;;;3.85;3.55;;;15.10;52.40;;;;;;5054689;28;20211;-58
2021/12/23 06:17:59;;;;;;;3.67;3.30;;;15.30;52.10;;;;;;5054220;28;20171;-59
2021/12/23 06:20:25;;;;;;;4.07;3.67;;;15.60;51.90;;;;;;5054868;28;20285;-60
2021/12/23 06:22:50;;;;;;;3.67;3.38;;;15.90;51.40;;;;;;5054981;28;20285;-59
2021/12/23 06:25:16;;;;;;;3.58;3.20;;;16.10;51.10;;;;;;5054350;28;20261;-59
2021/12/23 06:27:42;;;;;;;3.90;3.60;;;16.30;50.80;;;;;;5054694;28;20168;-59
2021/12/23 06:30:17;;;;;;;3.88;3.58;;;16.40;50.50;;;;;;5054919;28;20577;-59
2021/12/23 06:32:43;;;;;;;3.63;3.30;;;16.60;50.40;;;;;;5054147;28;20170;-59
2021/12/23 06:35:09;;;;;;;3.65;3.20;;;16.70;50.20;;;;;;5055007;28;20233;-59
2021/12/23 06:37:34;;;;;;;3.88;3.58;;;16.90;49.90;;;;;;5053643;28;20633;-59
2021/12/23 06:40:00;;;;;;;3.33;3.10;;;17.00;49.60;;;;;;5054913;28;20183;-59
2021/12/23 06:42:27;;;;;;;3.28;2.97;;;17.10;49.50;;;;;;5053064;28;20171;-59
2021/12/23 06:44:52;;;;;;;3.10;2.90;;;17.10;49.50;;;;;;5054036;28;20175;-59
2021/12/23 06:47:18;;;;;;;3.25;3.05;;;17.10;49.40;;;;;;5054238;28;20231;-59
2021/12/23 06:49:43;;;;;;;3.50;3.20;;;17.20;49.50;;;;;;5054768;28;20600;-60
2021/12/23 06:52:10;;;;;;;3.20;2.90;;;17.20;49.40;;;;;;5053942;28;20176;-58
2021/12/23 06:54:41;;;;;;;3.38;3.08;;;17.20;49.40;;;;;;5053043;28;20268;-59
2021/12/23 06:57:07;;;;;;;3.10;2.90;;;17.30;49.50;;;;;;5054692;28;20567;-59
2021/12/23 06:59:32;;;;;;;3.33;3.03;;;17.30;49.40;;;;;;5053676;28;20217;-59
2021/12/23 07:01:58;;;;;;;3.10;2.90;;;17.30;49.40;;;;;;5054523;28;20171;-58
2021/12/23 07:04:28;;;;;;;3.92;3.30;;;17.30;49.30;;;;;;5054140;28;20167;-59
2021/12/23 07:07:10;;;;;;;3.83;3.53;;;17.40;49.20;;;;;;5053672;28;20615;-59
2021/12/23 07:09:36;;;;;;;3.25;3.05;;;17.40;49.30;;;;;;5053844;28;20175;-60
2021/12/23 07:12:06;;;;;;;3.28;3.00;;;17.40;49.20;;;;;;5054388;28;20712;-60
2021/12/23 07:14:32;;;;;;;3.60;3.30;;;17.50;49.20;;;;;;5052992;28;20638;-60
2021/12/23 07:17:00;;;;;;;3.15;2.85;;;17.60;49.10;;;;;;5054057;28;20171;-59
2021/12/23 07:19:26;;;;;;;3.17;2.85;;;17.60;49.00;;;;;;5053619;28;20232;-60
2021/12/23 07:21:51;;;;;;;3.65;3.35;;;17.60;49.00;;;;;;5053159;28;20175;-60
2021/12/23 07:24:17;;;;;;;3.78;3.30;;;17.70;48.90;;;;;;5053768;28;20217;-60
2021/12/23 07:26:42;;;;;;;2.88;2.67;;;17.80;48.80;;;;;;5053013;28;20691;-59
2021/12/23 07:29:08;;;;;;;3.30;3.10;;;17.80;48.80;;;;;;5053466;28;20232;-59
2021/12/23 07:31:33;;;;;;;3.58;3.28;;;17.80;48.70;;;;;;5053327;28;20179;-58
2021/12/23 07:33:59;;;;;;;4.15;3.30;;;17.90;48.70;;;;;;5053117;28;20167;-63
2021/12/23 07:36:24;;;;;;;3.58;3.28;;;18.10;48.50;;;;;;5053285;28;20215;-59
2021/12/23 07:38:50;;;;;;;3.35;3.08;;;18.20;48.30;;;;;;5053740;28;20171;-58
2021/12/23 07:41:16;;;;;;;3.60;3.30;;;18.20;48.20;;;;;;5051697;28;20642;-59
2021/12/23 07:46:07;;;;;;;3.15;2.90;;;18.10;48.50;;;;;;5053493;28;20175;-59
2021/12/23 07:48:32;;;;;;;3.38;3.08;;;18.10;48.40;;;;;;5052349;28;20745;-60
2021/12/23 07:50:58;;;;;;;3.00;2.80;;;18.20;48.30;;;;;;5053475;28;20288;-59
2021/12/23 07:53:24;;;;;;;2.97;2.75;;;18.40;48.20;;;;;;5053116;28;20181;-60
2021/12/23 07:55:49;;;;;;;3.13;2.83;;;18.50;48.10;;;;;;5052722;28;20215;-59
2021/12/23 07:58:15;;;;;;;3.28;2.80;;;18.50;48.90;;;;;;5053198;28;20217;-66
2021/12/23 08:00:40;;;;;;;3.78;3.00;;;18.50;48.20;;;;;;5051953;28;20182;-67
2021/12/23 08:03:06;;;;;;;3.40;3.10;;;18.60;48.10;;;;;;5052025;28;20179;-66
2021/12/23 08:05:33;;;;;;;3.13;2.83;;;18.60;48.10;;;;;;5052435;28;20637;-67
2021/12/23 08:08:02;;;;;;;4.00;3.53;;;18.60;48.20;;;;;;5052501;28;20179;-67
2021/12/23 08:10:28;;;;;;;4.63;3.45;;;18.70;48.20;;;;;;5051946;28;20199;-69
2021/12/23 08:12:54;;;;;;;3.53;3.22;;;18.70;48.30;;;;;;5052876;28;20202;-66
2021/12/23 08:15:19;;;;;;;3.53;3.22;;;18.70;48.30;;;;;;5052393;28;20703;-65
2021/12/23 08:17:45;;;;;;;4.50;3.10;;;18.70;48.30;;;;;;5052133;28;20178;-65
2021/12/23 08:20:11;;;;;;;5.97;3.70;;;18.80;48.30;;;;;;5052721;28;20236;-64
2021/12/23 08:22:39;;;;;;;3.85;3.45;;;18.70;48.30;;;;;;5052341;28;20181;-65
2021/12/23 08:25:05;;;;;;;4.65;4.13;;;18.80;48.30;;;;;;5052259;28;20178;-64
2021/12/23 08:27:31;;;;;;;4.75;3.70;;;18.80;48.40;;;;;;5052588;28;20179;-65
2021/12/23 08:30:04;;;;;;;3.85;3.47;;;18.80;48.40;;;;;;5052751;28;20527;-63
2021/12/23 08:32:29;;;;;;;4.57;3.50;;;18.90;48.40;;;;;;5052414;28;20171;-68
2021/12/23 08:34:55;;;;;;;4.03;3.50;;;18.90;48.60;;;;;;5052312;28;20684;-65
2021/12/23 08:37:20;;;;;;;3.97;3.50;;;18.90;48.50;;;;;;5051963;28;20179;-66
2021/12/23 08:39:50;;;;;;;3.72;3.35;;;18.90;48.60;;;;;;5052717;28;20191;-66
2021/12/23 08:42:15;;;;;;;4.68;3.28;;;18.80;48.60;;;;;;5052465;28;20254;-70
2021/12/23 08:44:40;;;;;;;3.60;3.30;;;18.90;48.70;;;;;;5051100;28;20183;-66
2021/12/23 08:47:16;;;;;;;5.57;3.97;;;18.80;48.70;;;;;;5052132;28;20680;-65
2021/12/23 08:49:42;;;;;;;7.72;3.50;;;18.90;48.40;;;;;;5051969;28;20174;-66
2021/12/23 08:52:07;;;;;;;4.18;3.42;;;18.90;48.40;;;;;;5051412;28;20726;-65
2021/12/23 08:54:33;;;;;;;4.60;3.33;;;18.90;48.40;;;;;;5051973;28;20171;-66
2021/12/23 08:56:58;;;;;;;3.83;3.47;;;19.00;48.40;;;;;;5052436;28;20626;-70
2021/12/23 08:59:24;;;;;;;5.75;3.60;;;18.90;48.40;;;;;;5051050;28;20179;-67
2021/12/23 09:01:49;;;;;;;4.50;3.63;;;18.90;48.40;;;;;;5052026;28;20206;-67
2021/12/23 09:04:15;;;;;;;6.57;3.80;;;18.70;48.60;;;;;;5051762;28;20172;-67
2021/12/23 09:06:40;;;;;;;5.20;3.90;;;18.70;48.70;;;;;;5050850;28;20171;-68
2021/12/23 09:09:07;;;;;;;6.97;3.95;;;18.80;48.70;;;;;;5051968;28;20258;-67
2021/12/23 09:11:33;;;;;;;8.02;3.53;;;18.80;48.30;;;;;;5051580;28;20171;-67
2021/12/23 09:13:58;;;;;;;4.93;3.78;;;18.80;48.40;;;;;;5051317;28;20530;-67
2021/12/23 09:16:27;;;;;;;4.07;3.47;;;18.80;48.30;;;;;;5051477;28;20288;-68
2021/12/23 09:18:52;;;;;;;4.38;3.63;;;18.90;48.40;;;;;;5051414;28;20174;-65
2021/12/23 09:21:18;;;;;;;5.70;3.90;;;18.90;48.40;;;;;;5050953;28;20178;-67
2021/12/23 09:23:44;;;;;;;4.10;3.70;;;18.90;48.40;;;;;;5051428;28;20182;-66
2021/12/23 09:26:10;;;;;;;4.18;3.78;;;19.00;48.30;;;;;;5051783;28;20277;-66
2021/12/23 09:34:04;;;;;;;5.45;3.70;;;18.90;48.40;;;;;;5050847;28;20194;-66
2021/12/23 09:36:30;;;;;;;3.67;3.38;;;18.90;48.40;;;;;;5050929;28;20215;-67
2021/12/23 09:38:55;;;;;;;3.92;3.63;;;18.90;48.40;;;;;;5051306;28;20175;-66
2021/12/23 09:41:21;;;;;;;6.13;3.65;;;18.90;48.40;;;;;;5050141;28;20266;-67
2021/12/23 09:43:47;;;;;;;4.97;4.22;;;18.90;48.40;;;;;;5051165;28;20258;-67
2021/12/23 09:46:16;;;;;;;4.28;3.88;;;18.90;48.40;;;;;;5051214;28;20270;-67
2021/12/23 09:48:43;;;;;;;4.32;3.90;;;18.90;48.40;;;;;;5049935;28;20306;-67
2021/12/23 09:51:09;;;;;;;4.65;3.70;;;18.90;48.40;;;;;;5051005;28;20175;-67
2021/12/23 09:53:35;;;;;;;4.50;4.10;;;18.90;48.40;;;;;;5050911;28;20181;-66
2021/12/23 09:56:01;;;;;;;5.63;3.78;;;18.80;48.40;;;;;;5049034;28;20214;-67
2021/12/23 09:58:28;;;;;;;4.32;3.92;;;18.90;48.50;;;;;;5050887;28;20606;-67
2021/12/23 10:00:54;;;;;;;6.88;4.43;;;18.80;48.50;;;;;;5049749;28;20258;-67
2021/12/23 10:03:20;;;;;;;4.15;3.53;;;18.80;48.40;;;;;;5050065;28;20263;-67
2021/12/23 10:05:46;;;;;;;4.93;4.15;;;18.70;48.50;;;;;;5050752;28;20629;-67
2021/12/23 10:08:13;;;;;;;4.60;4.18;;;18.70;48.80;;;;;;5051059;28;20175;-67
2021/12/23 10:10:44;;;;;;;4.85;3.67;;;18.50;48.90;;;;;;5049917;28;20206;-67
2021/12/23 10:32:51;;;;;;;3.95;3.55;;;18.30;49.30;;;;;;5052921;28;20178;-68
2021/12/23 10:38:08;;;;;;;4.50;4.07;;;18.40;49.20;;;;;;5053788;28;20490;-67
2021/12/23 10:40:34;;;;;;;4.65;4.10;;;18.40;49.20;;;;;;5054080;28;20269;-68
2021/12/23 10:43:00;;;;;;;3.88;3.58;;;18.40;49.10;;;;;;5054554;28;20262;-68
2021/12/23 10:45:34;;;;;;;6.10;4.47;;;18.50;49.00;;;;;;5053271;28;20175;-67
2021/12/23 10:48:04;;;;;;;5.55;4.15;;;18.50;49.00;;;;;;5054064;28;20611;-67
2021/12/23 10:50:37;;;;;;;4.20;3.78;;;18.50;48.90;;;;;;5052671;28;20556;-67
2021/12/23 10:53:08;;;;;;;4.50;4.00;;;18.50;48.90;;;;;;5053802;28;20175;-67
2021/12/23 10:58:18;;;;;;;4.28;3.85;;;18.50;48.80;;;;;;5053694;28;20182;-67
2021/12/23 11:00:55;;;;;;;4.18;3.78;;;18.50;48.90;;;;;;5053902;28;20175;-66
2021/12/23 11:03:35;;;;;;;3.90;3.60;;;18.60;49.40;;;;;;5053952;28;20182;-67
2021/12/23 11:06:12;;;;;;;4.15;3.75;;;18.60;48.80;;;;;;5053769;28;20181;-68
2021/12/23 11:43:53;;;;;;;3.85;3.50;;;18.70;48.90;;;;;;5053458;28;20532;-67
2021/12/23 11:46:18;;;;;;;4.57;4.18;;;18.70;48.90;;;;;;5053012;28;20181;-67
2021/12/23 11:48:47;;;;;;;5.10;4.28;;;18.60;48.80;;;;;;5052054;28;20227;-67
2021/12/23 11:51:20;;;;;;;4.20;3.83;;;18.70;48.80;;;;;;5053206;28;20262;-68
2021/12/23 11:53:49;;;;;;;5.60;4.03;;;18.70;48.90;;;;;;5053043;28;20247;-68
2021/12/23 11:56:15;;;;;;;4.85;3.65;;;18.60;49.10;;;;;;5052234;28;20207;-68
2021/12/23 11:58:43;;;;;;;4.50;4.10;;;18.70;49.20;;;;;;5052597;28;20179;-67
2021/12/23 12:01:14;;;;;;;4.90;4.40;;;18.70;49.20;;;;;;5051913;28;20552;-69
2021/12/23 12:03:54;;;;;;;4.18;3.78;;;18.70;49.20;;;;;;5052536;28;20626;-68
2021/12/23 12:06:25;;;;;;;5.93;4.13;;;18.60;49.30;;;;;;5052710;28;20513;-68
2021/12/23 12:08:55;;;;;;;4.38;3.83;;;18.50;49.40;;;;;;5052144;28;20262;-68
2021/12/23 12:11:22;;;;;;;4.40;4.00;;;18.30;49.60;;;;;;5051157;28;20660;-68
2021/12/23 12:13:48;;;;;;;5.65;3.92;;;18.20;50.20;;;;;;5052770;28;20221;-69
2021/12/23 12:16:36;;;;;;;4.07;3.60;;;18.10;49.90;;;;;;5051970;28;20242;-66
2021/12/23 12:19:03;;;;;;;4.80;3.63;;;18.10;49.90;;;;;;5052749;28;20262;-67
2021/12/23 12:21:33;;;;;;;7.40;3.88;;;18.20;49.90;;;;;;5052379;28;20641;-67
2021/12/23 12:24:09;;;;;;;4.50;4.00;;;18.20;49.80;;;;;;5051358;28;20249;-68
2021/12/23 12:26:37;;;;;;;5.45;4.10;;;18.20;49.70;;;;;;5052109;28;20629;-68
2021/12/23 12:29:04;;;;;;;4.30;3.80;;;18.30;49.70;;;;;;5052524;28;20575;-67
2021/12/23 12:31:38;;;;;;;5.15;4.35;;;18.20;49.60;;;;;;5051519;28;20222;-67
2021/12/23 12:34:08;;;;;;;4.38;3.97;;;18.10;49.90;;;;;;5051257;28;20277;-68
2021/12/23 12:36:44;;;;;;;4.38;3.92;;;18.10;49.90;;;;;;5051170;28;20713;-68
2021/12/23 12:39:09;;;;;;;5.78;4.25;;;18.10;49.70;;;;;;5052369;28;20250;-68
2021/12/23 12:41:36;;;;;;;6.57;4.53;;;18.00;49.60;;;;;;5051974;28;20254;-68
2021/12/23 12:44:24;;;;;;;5.88;4.65;;;18.10;49.40;;;;;;5051713;28;20183;-67
2021/12/23 12:47:01;;;;;;;5.40;4.63;;;18.30;49.30;;;;;;5051457;28;20176;-68
2021/12/23 12:49:33;;;;;;;9.35;4.57;;;18.30;49.20;;;;;;5051984;28;20258;-66
2021/12/23 12:52:17;;;;;;;6.28;4.20;;;18.30;49.30;;;;;;5051470;28;20170;-66
2021/12/23 12:55:03;;;;;;;6.28;4.53;;;18.40;49.80;;;;;;5051520;28;20179;-67
2021/12/23 12:57:41;;;;;;;8.05;5.43;;;18.40;49.00;;;;;;5050844;28;20175;-68
2021/12/23 13:00:22;;;;;;;7.07;5.13;;;18.30;49.00;;;;;;5051995;28;20182;-68
2021/12/23 13:02:54;;;;;;;6.28;4.93;;;18.20;49.20;;;;;;5052001;28;20305;-68
2021/12/23 13:05:29;;;;;;;5.28;4.35;;;18.10;49.30;;;;;;5051281;28;20199;-62
2021/12/23 13:07:54;;;;;;;6.65;5.47;;;18.10;49.40;;;;;;5051685;28;20178;-63
2021/12/23 13:10:27;;;;;;;10.55;5.22;;;18.00;49.50;;;;;;5051430;28;20190;-69
2021/12/23 13:12:58;;;;;;;8.90;5.55;;;17.90;49.70;;;;;;5049980;28;20211;-67
2021/12/23 13:15:32;;;;;;;9.10;5.45;;;18.00;49.70;;;;;;5051300;28;20287;-66
2021/12/23 13:18:18;;;;;;;8.00;5.07;;;18.30;49.80;;;;;;5051546;28;20190;-67
2021/12/23 13:20:48;;;;;;;9.00;4.93;;;18.10;49.60;;;;;;5050784;28;20171;-67
2021/12/23 13:23:21;;;;;;;7.53;5.15;;;18.20;49.60;;;;;;5052158;28;20198;-68
2021/12/23 13:25:50;;;;;;;8.20;4.93;;;18.20;49.40;;;;;;5051955;28;20183;-66
2021/12/23 13:28:23;;;;;;;5.75;4.63;;;18.20;49.40;;;;;;5051450;28;20615;-66
2021/12/23 13:30:49;;;;;;;6.80;5.07;;;18.20;49.60;;;;;;5052117;28;20198;-68
2021/12/23 13:33:15;;;;;;;9.95;5.30;;;18.20;49.60;;;;;;5050564;28;20514;-68
2021/12/23 13:35:40;;;;;;;6.35;4.72;;;18.20;49.60;;;;;;5051244;28;20211;-68
2021/12/23 13:38:05;;;;;;;5.00;4.30;;;18.30;49.50;;;;;;5051291;28;20669;-67
2021/12/23 13:40:34;;;;;;;8.32;4.95;;;18.40;49.40;;;;;;5050135;28;20194;-66
2021/12/23 13:42:59;;;;;;;7.50;4.22;;;18.40;49.50;;;;;;5051254;28;20177;-68
2021/12/23 13:45:25;;;;;;;7.75;4.80;;;18.50;49.50;;;;;;5050967;28;20266;-68
2021/12/23 13:47:52;;;;;;;5.57;4.97;;;18.50;49.40;;;;;;5050670;28;20215;-67
2021/12/23 13:50:18;;;;;;;6.22;4.68;;;18.50;49.30;;;;;;5051644;28;20266;-63
2021/12/23 13:52:47;;;;;;;6.40;4.55;;;18.40;49.30;;;;;;5051361;28;20254;-63
2021/12/23 13:55:18;;;;;;;6.25;4.40;;;18.30;49.50;;;;;;5050326;28;20649;-63
2021/12/23 13:57:46;;;;;;;5.88;4.78;;;18.10;49.60;;;;;;5052791;28;20277;-64
2021/12/23 14:00:16;;;;;;;6.68;5.10;;;18.00;49.80;;;;;;5054959;28;20587;-69